createdAt,value
2018-01-26T00:01:58.873Z,78.10
2018-01-26T00:04:26.353Z,78.10
2018-01-26T00:06:54.577Z,78.50
2018-01-26T00:09:22.074Z,78.30
2018-01-26T00:11:50.302Z,78.50
2018-01-26T00:14:17.774Z,78.40
2018-01-26T00:16:45.273Z,78.40
2018-01-26T00:19:13.549Z,78.60
2018-01-26T00:21:41.779Z,78.50
2018-01-26T00:24:09.269Z,78.50
2018-01-26T00:26:36.732Z,78.60
2018-01-26T00:29:04.222Z,78.50
2018-01-26T00:31:31.708Z,78.60
2018-01-26T00:33:59.159Z,78.70
2018-01-26T00:36:26.634Z,78.90
2018-01-26T00:38:54.212Z,78.90
2018-01-26T00:41:21.666Z,78.90
2018-01-26T00:43:49.137Z,78.90
2018-01-26T00:46:16.621Z,78.90
2018-01-26T00:48:44.926Z,78.90
2018-01-26T00:51:12.376Z,78.90
2018-01-26T00:53:39.840Z,79.00
2018-01-26T00:56:07.318Z,79.00
2018-01-26T00:58:34.787Z,79.00
2018-01-26T01:01:02.261Z,79.00
2018-01-26T01:03:29.722Z,79.10
2018-01-26T01:05:57.200Z,79.00
2018-01-26T01:08:24.677Z,79.00
2018-01-26T01:10:52.120Z,79.10
2018-01-26T01:13:19.605Z,79.10
2018-01-26T01:15:47.061Z,79.20
2018-01-26T01:18:14.625Z,79.20
2018-01-26T01:20:42.097Z,79.20
2018-01-26T01:23:09.572Z,79.20
2018-01-26T01:25:37.050Z,79.20
2018-01-26T01:28:04.521Z,79.30
2018-01-26T01:30:31.977Z,79.40
2018-01-26T01:33:00.010Z,79.40
2018-01-26T01:35:27.470Z,79.30
2018-01-26T01:37:54.922Z,79.30
2018-01-26T01:40:22.401Z,79.40
2018-01-26T01:42:49.863Z,79.50
2018-01-26T01:45:17.337Z,79.50
2018-01-26T01:47:44.808Z,79.50
2018-01-26T01:50:12.277Z,79.40
2018-01-26T01:52:39.761Z,79.40
2018-01-26T01:55:07.265Z,79.50
2018-01-26T01:57:34.712Z,79.40
2018-01-26T02:00:02.180Z,80.10
2018-01-26T02:02:29.879Z,79.40
2018-01-26T02:04:57.341Z,79.40
2018-01-26T02:07:24.800Z,79.30
2018-01-26T02:09:52.293Z,79.40
2018-01-26T02:12:19.757Z,79.30
2018-01-26T02:14:47.229Z,79.50
2018-01-26T02:17:14.713Z,79.50
2018-01-26T02:19:42.184Z,79.40
2018-01-26T02:22:09.678Z,79.40
2018-01-26T02:24:55.489Z,79.50
2018-01-26T02:27:22.962Z,79.50
2018-01-26T02:29:50.444Z,79.40
2018-01-26T02:32:17.904Z,79.50
2018-01-26T02:34:45.386Z,79.40
2018-01-26T02:37:12.878Z,79.40
2018-01-26T02:39:40.353Z,79.40
2018-01-26T02:42:08.597Z,79.40
2018-01-26T02:44:36.821Z,79.40
2018-01-26T02:47:04.328Z,79.40
2018-01-26T02:49:31.797Z,79.40
2018-01-26T02:51:59.261Z,79.50
2018-01-26T02:54:26.733Z,79.50
2018-01-26T02:56:54.185Z,79.50
2018-01-26T02:59:21.661Z,79.50
2018-01-26T03:01:49.874Z,79.60
2018-01-26T03:04:17.354Z,79.60
2018-01-26T03:06:44.812Z,79.60
2018-01-26T03:09:12.326Z,79.60
2018-01-26T03:11:40.560Z,79.60
2018-01-26T03:14:08.037Z,79.60
2018-01-26T03:16:35.502Z,79.50
2018-01-26T03:19:03.789Z,79.60
2018-01-26T03:21:31.254Z,79.60
2018-01-26T03:23:58.741Z,79.60
2018-01-26T03:26:26.202Z,79.60
2018-01-26T03:28:53.681Z,79.60
2018-01-26T03:31:21.139Z,79.60
2018-01-26T03:33:48.662Z,79.60
2018-01-26T03:36:16.152Z,79.60
2018-01-26T03:38:43.641Z,79.60
2018-01-26T03:41:11.125Z,79.70
2018-01-26T03:43:38.576Z,79.70
2018-01-26T03:46:06.817Z,79.80
2018-01-26T03:48:34.277Z,79.70
2018-01-26T03:51:02.007Z,79.70
2018-01-26T03:53:29.460Z,79.70
2018-01-26T03:55:56.928Z,79.80
2018-01-26T03:58:24.417Z,79.90
2018-01-26T04:00:51.881Z,79.90
2018-01-26T04:03:19.357Z,79.80
2018-01-26T04:05:46.849Z,79.90
2018-01-26T04:08:14.378Z,79.90
2018-01-26T04:10:42.601Z,80.00
2018-01-26T04:13:10.091Z,80.00
2018-01-26T04:15:37.588Z,80.00
2018-01-26T04:18:05.160Z,80.00
2018-01-26T04:20:32.622Z,80.00
2018-01-26T04:23:00.101Z,80.20
2018-01-26T04:25:27.557Z,80.30
2018-01-26T04:27:55.027Z,80.30
2018-01-26T04:30:22.500Z,80.30
2018-01-26T04:32:49.985Z,80.30
2018-01-26T04:35:18.241Z,80.30
2018-01-26T04:37:45.706Z,80.30
2018-01-26T04:40:13.998Z,80.00
2018-01-26T04:42:42.240Z,80.50
2018-01-26T04:45:09.701Z,80.40
2018-01-26T04:47:37.529Z,80.30
2018-01-26T04:50:04.995Z,80.40
2018-01-26T04:52:32.475Z,80.50
2018-01-26T04:54:59.925Z,80.50
2018-01-26T04:57:27.410Z,80.50
2018-01-26T04:59:54.878Z,80.60
2018-01-26T05:02:23.100Z,80.60
2018-01-26T05:04:50.579Z,80.60
2018-01-26T05:07:18.037Z,80.60
2018-01-26T05:09:45.546Z,80.70
2018-01-26T05:12:13.764Z,80.70
2018-01-26T05:14:41.984Z,80.70
2018-01-26T05:17:09.470Z,80.70
2018-01-26T05:19:36.913Z,80.80
2018-01-26T05:22:04.398Z,80.80
2018-01-26T05:24:31.849Z,81.40
2018-01-26T05:26:59.341Z,80.80
2018-01-26T05:29:26.853Z,80.70
2018-01-26T05:31:54.301Z,80.70
2018-01-26T05:34:22.553Z,80.70
2018-01-26T05:36:50.005Z,80.70
2018-01-26T05:39:17.485Z,80.70
2018-01-26T05:41:45.705Z,80.80
2018-01-26T05:44:13.182Z,80.80
2018-01-26T05:46:40.701Z,80.70
2018-01-26T05:49:08.204Z,80.70
2018-01-26T05:51:35.661Z,80.70
2018-01-26T05:54:03.122Z,80.70
2018-01-26T05:56:30.590Z,80.70
2018-01-26T05:58:58.085Z,80.70
2018-01-26T06:01:25.561Z,80.70
2018-01-26T06:03:53.043Z,80.70
2018-01-26T06:06:20.584Z,80.70
2018-01-26T06:08:48.046Z,80.80
2018-01-26T06:11:15.524Z,80.80
2018-01-26T06:13:43.009Z,80.60
2018-01-26T06:16:10.461Z,80.60
2018-01-26T06:18:37.943Z,80.60
2018-01-26T06:21:06.199Z,80.70
2018-01-26T06:23:33.654Z,81.50
2018-01-26T06:26:01.146Z,80.70
2018-01-26T06:28:28.701Z,80.80
2018-01-26T06:30:56.948Z,80.70
2018-01-26T06:33:27.353Z,80.70
2018-01-26T06:35:54.952Z,80.70
2018-01-26T06:38:23.185Z,80.70
2018-01-26T06:40:51.404Z,80.70
2018-01-26T06:43:18.899Z,80.70
2018-01-26T06:45:46.350Z,80.70
2018-01-26T06:48:13.828Z,80.80
2018-01-26T06:50:41.318Z,80.90
2018-01-26T06:53:08.792Z,80.90
2018-01-26T06:55:37.019Z,81.00
2018-01-26T06:58:04.582Z,81.00
2018-01-26T07:00:32.049Z,80.90
2018-01-26T07:02:59.513Z,80.90
2018-01-26T07:05:26.995Z,81.00
2018-01-26T07:07:54.523Z,81.00
2018-01-26T07:10:21.997Z,81.00
2018-01-26T07:12:49.485Z,80.90
2018-01-26T07:15:17.715Z,81.00
2018-01-26T07:17:45.165Z,81.00
2018-01-26T07:20:14.353Z,81.00
2018-01-26T07:22:41.896Z,81.00
2018-01-26T07:25:09.395Z,81.00
2018-01-26T07:27:36.855Z,81.10
2018-01-26T07:30:04.313Z,81.10
2018-01-26T07:32:31.785Z,81.00
2018-01-26T07:34:59.322Z,81.00
2018-01-26T07:37:26.804Z,81.00
2018-01-26T07:39:54.260Z,81.00
2018-01-26T07:42:21.744Z,81.00
2018-01-26T07:44:49.993Z,81.10
2018-01-26T07:47:17.462Z,81.10
2018-01-26T07:49:44.970Z,81.00
2018-01-26T07:52:12.461Z,81.00
2018-01-26T07:54:39.915Z,81.00
2018-01-26T07:57:07.397Z,81.10
2018-01-26T07:59:34.897Z,81.10
2018-01-26T08:02:02.361Z,81.10
2018-01-26T08:04:29.821Z,81.00
2018-01-26T08:06:57.317Z,81.00
2018-01-26T08:09:24.789Z,81.00
2018-01-26T08:11:52.302Z,80.90
2018-01-26T08:14:19.786Z,80.90
2018-01-26T08:16:47.241Z,80.90
2018-01-26T08:19:14.713Z,80.90
2018-01-26T08:21:42.202Z,81.00
2018-01-26T08:24:09.660Z,81.00
2018-01-26T08:26:37.138Z,80.90
2018-01-26T08:29:04.602Z,80.90
2018-01-26T08:31:32.089Z,80.90
2018-01-26T08:33:59.561Z,80.80
2018-01-26T08:36:27.023Z,80.90
2018-01-26T08:38:54.509Z,80.80
2018-01-26T08:41:22.741Z,81.00
2018-01-26T08:43:50.242Z,80.90
2018-01-26T08:46:18.493Z,81.00
2018-01-26T08:48:46.029Z,80.90
2018-01-26T08:51:13.477Z,81.00
2018-01-26T08:53:40.945Z,81.00
2018-01-26T08:56:08.429Z,80.90
2018-01-26T08:58:35.881Z,80.90
2018-01-26T09:01:03.335Z,80.80
2018-01-26T09:03:30.812Z,80.70
2018-01-26T09:05:58.282Z,80.70
2018-01-26T09:08:25.761Z,80.70
2018-01-26T09:10:53.249Z,80.60
2018-01-26T09:13:20.713Z,80.60
2018-01-26T09:15:48.208Z,80.60
2018-01-26T09:18:15.680Z,80.60
2018-01-26T09:20:43.901Z,80.40
2018-01-26T09:23:11.373Z,80.40
2018-01-26T09:25:38.845Z,80.30
2018-01-26T09:28:06.460Z,80.30
2018-01-26T09:30:33.936Z,80.20
2018-01-26T09:33:01.430Z,80.20
2018-01-26T09:35:28.894Z,80.20
2018-01-26T09:37:56.349Z,80.10
2018-01-26T09:40:23.823Z,80.00
2018-01-26T09:42:51.274Z,80.00
2018-01-26T09:45:18.762Z,80.00
2018-01-26T09:47:46.213Z,80.00
2018-01-26T09:50:13.673Z,80.10
2018-01-26T09:52:41.149Z,80.10
2018-01-26T09:55:08.614Z,80.00
2018-01-26T09:57:36.109Z,79.80
2018-01-26T10:00:03.565Z,79.70
2018-01-26T10:02:31.741Z,79.60
2018-01-26T10:04:59.218Z,79.70
2018-01-26T10:07:26.710Z,79.80
2018-01-26T10:09:54.241Z,80.00
2018-01-26T10:12:22.478Z,80.20
2018-01-26T10:14:50.037Z,80.00
2018-01-26T10:17:17.508Z,80.20
2018-01-26T10:19:44.962Z,80.20
2018-01-26T10:22:12.452Z,80.20
2018-01-26T10:24:39.905Z,80.30
2018-01-26T10:27:07.402Z,80.20
2018-01-26T10:29:34.866Z,81.00
2018-01-26T10:32:02.352Z,80.30
2018-01-26T10:34:29.817Z,80.40
2018-01-26T10:36:57.297Z,80.40
2018-01-26T10:39:25.594Z,80.20
2018-01-26T10:41:53.074Z,80.10
2018-01-26T10:44:20.542Z,80.10
2018-01-26T10:46:48.002Z,80.00
2018-01-26T10:49:15.489Z,80.00
2018-01-26T10:51:42.962Z,80.00
2018-01-26T10:54:10.464Z,79.80
2018-01-26T10:56:37.975Z,79.90
2018-01-26T10:59:05.445Z,79.80
2018-01-26T11:01:33.693Z,79.90
2018-01-26T11:04:01.181Z,79.90
2018-01-26T11:06:29.400Z,79.80
2018-01-26T11:08:57.139Z,79.80
2018-01-26T11:11:24.597Z,79.80
2018-01-26T11:13:52.077Z,79.80
2018-01-26T11:16:19.533Z,79.80
2018-01-26T11:18:47.281Z,79.70
2018-01-26T11:21:14.739Z,79.70
2018-01-26T11:23:42.198Z,79.70
2018-01-26T11:26:09.673Z,79.60
2018-01-26T11:28:37.129Z,79.50
2018-01-26T11:31:04.627Z,79.50
2018-01-26T11:33:32.078Z,79.50
2018-01-26T11:35:59.542Z,79.50
2018-01-26T11:38:27.045Z,79.60
2018-01-26T11:40:54.510Z,79.40
2018-01-26T11:43:21.994Z,79.30
2018-01-26T11:45:49.493Z,79.20
2018-01-26T11:48:16.974Z,79.00
2018-01-26T11:50:45.197Z,78.70
2018-01-26T11:53:12.684Z,78.70
2018-01-26T11:55:40.144Z,78.40
2018-01-26T11:58:07.606Z,78.30
2018-01-26T12:00:35.085Z,78.00
2018-01-26T12:03:03.310Z,77.80
2018-01-26T12:05:31.534Z,76.50
2018-01-26T12:07:59.133Z,76.50
2018-01-26T12:10:26.593Z,77.30
2018-01-26T12:12:54.058Z,76.20
2018-01-26T12:15:22.148Z,75.60
2018-01-26T12:17:49.608Z,75.40
2018-01-26T12:20:17.746Z,75.40
2018-01-26T12:22:45.286Z,75.20
2018-01-26T12:25:12.742Z,75.10
2018-01-26T12:27:40.977Z,75.10
2018-01-26T12:30:08.491Z,75.00
2018-01-26T12:32:35.950Z,74.90
2018-01-26T12:35:03.454Z,74.80
2018-01-26T12:37:30.917Z,74.40
2018-01-26T12:39:58.390Z,74.40
2018-01-26T12:42:25.876Z,74.60
2018-01-26T12:44:53.342Z,74.50
2018-01-26T12:47:20.815Z,74.20
2018-01-26T12:49:48.308Z,73.80
2018-01-26T12:52:15.804Z,73.40
2018-01-26T12:54:43.282Z,73.50
2018-01-26T12:57:10.741Z,73.10
2018-01-26T12:59:38.301Z,73.20
2018-01-26T13:02:05.774Z,73.10
2018-01-26T13:04:33.266Z,73.10
2018-01-26T13:07:00.739Z,72.50
2018-01-26T13:09:28.961Z,72.30
2018-01-26T13:11:56.458Z,72.20
2018-01-26T13:14:23.913Z,72.30
2018-01-26T13:16:51.396Z,72.00
2018-01-26T13:19:19.645Z,71.70
2018-01-26T13:21:47.133Z,71.60
2018-01-26T13:24:15.357Z,72.00
2018-01-26T13:26:42.853Z,72.00
2018-01-26T13:29:10.325Z,71.80
2018-01-26T13:31:38.581Z,70.90
2018-01-26T13:34:06.064Z,70.80
2018-01-26T13:36:34.296Z,69.80
2018-01-26T13:39:01.756Z,69.70
2018-01-26T13:41:29.246Z,69.70
2018-01-26T13:43:57.480Z,70.10
2018-01-26T13:46:24.973Z,70.00
2018-01-26T13:48:52.438Z,70.20
2018-01-26T13:51:20.693Z,70.40
2018-01-26T13:53:48.179Z,70.30
2018-01-26T13:56:16.425Z,70.20
2018-01-26T13:58:43.929Z,70.20
2018-01-26T14:01:11.429Z,70.10
2018-01-26T14:03:38.887Z,70.20
2018-01-26T14:06:06.380Z,70.70
2018-01-26T14:08:33.834Z,71.00
2018-01-26T14:11:01.290Z,70.90
2018-01-26T14:13:28.776Z,71.00
2018-01-26T14:15:57.018Z,71.10
2018-01-26T14:18:24.493Z,71.00
2018-01-26T14:20:52.720Z,71.40
2018-01-26T14:23:20.201Z,71.40
2018-01-26T14:25:47.685Z,71.60
2018-01-26T14:28:15.958Z,71.60
2018-01-26T14:30:43.446Z,71.60
2018-01-26T14:33:10.917Z,71.60
2018-01-26T14:35:38.878Z,71.70
2018-01-26T14:38:07.420Z,71.60
2018-01-26T14:40:34.877Z,71.80
2018-01-26T14:43:02.357Z,71.90
2018-01-26T14:45:30.650Z,71.80
2018-01-26T14:47:58.095Z,71.80
2018-01-26T14:50:25.552Z,71.80
2018-01-26T14:52:53.037Z,72.00
2018-01-26T14:55:20.658Z,71.70
2018-01-26T14:57:49.051Z,72.30
2018-01-26T15:00:17.300Z,72.20
2018-01-26T15:02:44.760Z,72.10
2018-01-26T15:05:12.262Z,72.20
2018-01-26T15:07:39.760Z,72.10
2018-01-26T15:10:07.227Z,71.80
2018-01-26T15:12:34.712Z,71.50
2018-01-26T15:15:02.169Z,71.50
2018-01-26T15:17:29.631Z,71.70
2018-01-26T15:19:57.284Z,71.50
2018-01-26T15:22:24.694Z,71.60
2018-01-26T15:24:52.161Z,71.60
2018-01-26T15:27:19.772Z,71.90
2018-01-26T15:29:48.000Z,72.40
2018-01-26T15:32:15.490Z,72.40
2018-01-26T15:34:42.944Z,72.30
2018-01-26T15:37:10.422Z,72.30
2018-01-26T15:39:38.653Z,72.70
2018-01-26T15:42:06.910Z,72.80
2018-01-26T15:44:34.380Z,72.70
2018-01-26T15:47:01.878Z,72.80
2018-01-26T15:49:29.378Z,72.80
2018-01-26T15:51:56.843Z,72.90
2018-01-26T15:54:24.309Z,74.00
2018-01-26T15:56:51.801Z,74.00
2018-01-26T15:59:19.268Z,74.00
2018-01-26T16:01:46.734Z,74.00
2018-01-26T16:04:14.233Z,74.10
2018-01-26T16:06:41.686Z,74.10
2018-01-26T16:09:09.152Z,74.20
2018-01-26T16:11:37.872Z,74.20
2018-01-26T16:14:05.329Z,74.20
2018-01-26T16:16:32.885Z,74.30
2018-01-26T16:19:00.352Z,74.40
2018-01-26T16:21:27.836Z,74.50
2018-01-26T16:23:55.285Z,74.40
2018-01-26T16:26:22.748Z,74.40
2018-01-26T16:28:50.993Z,74.60
2018-01-26T16:31:18.479Z,74.50
2018-01-26T16:33:45.941Z,74.70
2018-01-26T16:36:13.396Z,74.60
2018-01-26T16:38:40.868Z,74.70
2018-01-26T16:41:08.336Z,74.80
2018-01-26T16:43:35.825Z,74.80
2018-01-26T16:46:03.306Z,75.00
2018-01-26T16:48:30.816Z,74.90
2018-01-26T16:50:58.289Z,75.10
2018-01-26T16:53:25.774Z,75.30
2018-01-26T16:55:53.242Z,75.40
2018-01-26T16:58:20.717Z,75.60
2018-01-26T17:00:48.218Z,75.70
2018-01-26T17:03:15.676Z,75.90
2018-01-26T17:05:43.339Z,75.90
2018-01-26T17:08:10.799Z,76.10
2018-01-26T17:10:38.264Z,76.30
2018-01-26T17:13:05.717Z,76.30
2018-01-26T17:15:33.204Z,76.30
2018-01-26T17:18:00.666Z,76.00
2018-01-26T17:20:28.133Z,75.90
2018-01-26T17:22:55.606Z,76.00
2018-01-26T17:25:23.089Z,76.00
2018-01-26T17:27:50.545Z,75.90
2018-01-26T17:30:18.007Z,76.00
2018-01-26T17:32:46.264Z,76.10
2018-01-26T17:35:14.547Z,75.90
2018-01-26T17:37:42.805Z,75.90
2018-01-26T17:40:10.301Z,75.80
2018-01-26T17:42:37.789Z,75.90
2018-01-26T17:45:05.254Z,75.90
2018-01-26T17:47:32.769Z,75.90
2018-01-26T17:50:00.225Z,75.80
2018-01-26T17:52:27.667Z,75.80
2018-01-26T17:54:55.179Z,76.00
2018-01-26T17:57:22.660Z,76.00
2018-01-26T17:59:50.169Z,75.90
2018-01-26T18:02:17.661Z,75.80
2018-01-26T18:04:45.132Z,75.90
2018-01-26T18:07:12.605Z,76.20
2018-01-26T18:09:40.086Z,76.40
2018-01-26T18:12:07.596Z,76.50
2018-01-26T18:14:35.065Z,77.30
2018-01-26T18:17:02.598Z,76.70
2018-01-26T18:19:30.078Z,76.90
2018-01-26T18:21:57.580Z,77.60
2018-01-26T18:24:25.029Z,76.90
2018-01-26T18:26:52.485Z,77.10
2018-01-26T18:29:19.984Z,77.20
2018-01-26T18:31:47.504Z,77.20
2018-01-26T18:34:14.933Z,77.10
2018-01-26T18:36:42.421Z,77.00
2018-01-26T18:39:09.984Z,76.90
2018-01-26T18:41:38.242Z,77.00
2018-01-26T18:44:05.698Z,77.00
2018-01-26T18:46:33.164Z,76.90
2018-01-26T18:49:00.668Z,76.90
2018-01-26T18:51:28.111Z,76.80
2018-01-26T18:53:55.601Z,76.90
2018-01-26T18:56:23.102Z,76.80
2018-01-26T18:58:50.548Z,76.90
2018-01-26T19:01:18.037Z,76.90
2018-01-26T19:03:45.509Z,76.90
2018-01-26T19:06:13.029Z,76.90
2018-01-26T19:08:40.573Z,76.80
2018-01-26T19:11:08.037Z,76.80
2018-01-26T19:13:35.536Z,76.70
2018-01-26T19:16:03.078Z,76.70
2018-01-26T19:18:31.454Z,76.90
2018-01-26T19:20:59.113Z,76.80
2018-01-26T19:23:26.631Z,76.80
2018-01-26T19:25:54.089Z,76.70
2018-01-26T19:28:21.581Z,76.60
2018-01-26T19:30:49.048Z,76.60
2018-01-26T19:33:16.509Z,76.60
2018-01-26T19:35:44.784Z,76.80
2018-01-26T19:38:12.250Z,76.50
2018-01-26T19:40:40.469Z,76.30
2018-01-26T19:43:08.048Z,76.30
2018-01-26T19:45:35.587Z,76.30
2018-01-26T19:48:03.333Z,76.50
2018-01-26T19:50:30.832Z,76.60
2018-01-26T19:52:58.431Z,76.60
2018-01-26T19:55:26.367Z,76.50
2018-01-26T19:57:54.838Z,76.70
2018-01-26T20:00:23.540Z,76.60
2018-01-26T20:02:51.594Z,76.70
2018-01-26T20:05:36.712Z,76.80
2018-01-26T20:08:32.501Z,76.90
2018-01-26T20:11:00.093Z,76.90
2018-01-26T20:13:28.647Z,76.80
2018-01-26T20:15:56.868Z,76.80
2018-01-26T20:18:25.192Z,76.80
2018-01-26T20:20:52.680Z,76.80
2018-01-26T20:23:20.343Z,77.00
2018-01-26T20:25:47.983Z,76.70
2018-01-26T20:28:15.480Z,76.70
2018-01-26T20:30:43.721Z,76.70
2018-01-26T20:33:11.202Z,76.80
2018-01-26T20:35:38.965Z,76.60
2018-01-26T20:38:06.657Z,76.70
2018-01-26T20:40:35.169Z,76.70
2018-01-26T20:43:02.679Z,76.70
2018-01-26T20:45:30.336Z,76.80
2018-01-26T20:47:58.061Z,77.00
2018-01-26T20:50:25.756Z,76.90
2018-01-26T20:52:53.446Z,76.90
2018-01-26T20:55:21.108Z,76.90
2018-01-26T20:57:48.915Z,76.90
2018-01-26T21:00:17.160Z,76.90
2018-01-26T21:02:44.632Z,76.80
2018-01-26T21:05:12.100Z,76.80
2018-01-26T21:07:39.813Z,76.90
2018-01-26T21:10:07.484Z,76.90
2018-01-26T21:12:35.839Z,76.90
2018-01-26T21:15:03.698Z,77.00
2018-01-26T21:17:31.330Z,76.90
2018-01-26T21:19:59.912Z,77.60
2018-01-26T21:22:27.425Z,76.60
2018-01-26T21:24:54.937Z,76.70
2018-01-26T21:27:22.462Z,76.80
2018-01-26T21:29:50.880Z,76.90
2018-01-26T21:32:19.237Z,76.80
2018-01-26T21:34:46.912Z,76.80
2018-01-26T21:37:14.653Z,76.80
2018-01-26T21:39:42.288Z,76.70
2018-01-26T21:42:09.861Z,76.60
2018-01-26T21:44:38.134Z,76.80
2018-01-26T21:47:06.151Z,76.70
2018-01-26T21:49:33.952Z,76.80
2018-01-26T21:52:01.449Z,76.90
2018-01-26T21:54:29.106Z,77.00
2018-01-26T21:56:56.605Z,77.20
2018-01-26T21:59:24.276Z,77.10
2018-01-26T22:01:52.321Z,77.10
2018-01-26T22:04:21.063Z,77.00
2018-01-26T22:06:54.424Z,77.00
2018-01-26T22:09:22.092Z,77.00
2018-01-26T22:11:49.881Z,76.90
2018-01-26T22:14:17.633Z,77.00
2018-01-26T22:16:45.231Z,77.00
2018-01-26T22:19:12.998Z,76.90
2018-01-26T22:21:40.784Z,76.80
2018-01-26T22:24:08.604Z,76.80
2018-01-26T22:26:36.334Z,76.90
2018-01-26T22:29:04.313Z,77.00
2018-01-26T22:31:32.024Z,77.20
2018-01-26T22:33:59.763Z,77.30
2018-01-26T22:36:27.530Z,77.30
2018-01-26T22:38:55.359Z,77.20
2018-01-26T22:41:22.937Z,77.00
2018-01-26T22:43:50.604Z,76.90
2018-01-26T22:46:18.167Z,77.20
2018-01-26T22:48:45.817Z,77.10
2018-01-26T22:51:14.285Z,77.10
2018-01-26T22:53:42.031Z,77.10
2018-01-26T22:56:09.887Z,77.30
2018-01-26T22:58:38.427Z,77.50
2018-01-26T23:01:06.922Z,77.50
2018-01-26T23:03:34.697Z,77.50
2018-01-26T23:06:02.311Z,77.40
2018-01-26T23:08:30.110Z,77.40
2018-01-26T23:10:57.817Z,77.40
2018-01-26T23:13:27.212Z,77.30
2018-01-26T23:15:54.980Z,77.20
2018-01-26T23:18:22.579Z,77.20
2018-01-26T23:20:50.497Z,77.30
2018-01-26T23:23:18.347Z,77.60
2018-01-26T23:25:45.989Z,77.70
2018-01-26T23:28:13.695Z,77.60
2018-01-26T23:30:41.400Z,77.70
2018-01-26T23:33:09.201Z,77.70
2018-01-26T23:35:37.103Z,77.70
2018-01-26T23:38:05.566Z,77.70
2018-01-26T23:40:33.383Z,77.70
2018-01-26T23:43:01.168Z,77.50
2018-01-26T23:45:28.921Z,77.70
2018-01-26T23:47:56.632Z,77.70
2018-01-26T23:50:24.354Z,77.70
2018-01-26T23:52:52.938Z,77.70
2018-01-26T23:55:20.705Z,77.70
2018-01-26T23:57:48.490Z,77.70
